Time;durP1;ratioP1;P1;durP2;ratioP2;P2;SDS_P1;SDS_P2;PMS_P1;PMS_P2;Temp;Humidity;BMP_temperature;BMP_pressure;BME280_temperature;BME280_humidity;BME280_pressure;Samples;Min_cycle;Max_cycle;Signal;HPM_P1;HPM_P2
2022/03/23 00:01:18;;;;;;;6.77;3.53;;;6.20;99.90;;;;;;5092628;28;20198;-72
2022/03/23 00:03:46;;;;;;;7.53;4.03;;;6.10;99.90;;;;;;5092664;28;20228;-72
2022/03/23 00:06:17;;;;;;;12.43;4.27;;;6.10;99.90;;;;;;5092179;28;20216;-72
2022/03/23 00:08:44;;;;;;;9.10;4.40;;;6.10;99.90;;;;;;5093410;28;20230;-72
2022/03/23 00:11:11;;;;;;;7.13;3.97;;;6.10;99.90;;;;;;5092568;28;20207;-72
2022/03/23 00:13:38;;;;;;;15.87;4.77;;;6.10;99.90;;;;;;5090971;28;20680;-72
2022/03/23 00:16:05;;;;;;;7.27;3.87;;;6.10;99.90;;;;;;5092679;28;20203;-72
2022/03/23 00:18:32;;;;;;;11.63;4.20;;;6.10;99.90;;;;;;5092619;28;20263;-72
2022/03/23 00:20:59;;;;;;;8.67;4.13;;;6.00;99.90;;;;;;5092907;28;20199;-72
2022/03/23 00:23:27;;;;;;;8.80;4.40;;;6.00;99.90;;;;;;5093038;28;20202;-72
2022/03/23 00:25:54;;;;;;;6.70;3.80;;;6.10;99.90;;;;;;5092648;28;20225;-72
2022/03/23 00:28:21;;;;;;;8.57;4.53;;;5.90;99.90;;;;;;5092804;28;20219;-72
2022/03/23 00:30:48;;;;;;;9.17;4.40;;;5.80;99.90;;;;;;5092686;28;20198;-72
2022/03/23 00:33:16;;;;;;;7.53;4.00;;;5.80;99.90;;;;;;5091923;28;20198;-72
2022/03/23 00:35:43;;;;;;;8.90;3.80;;;5.80;99.90;;;;;;5092362;28;20226;-72
2022/03/23 00:38:10;;;;;;;7.73;4.43;;;5.70;99.90;;;;;;5092204;28;20692;-72
2022/03/23 00:40:39;;;;;;;10.03;4.20;;;5.70;99.90;;;;;;5093022;28;20202;-72
2022/03/23 00:43:06;;;;;;;7.43;4.20;;;5.70;99.90;;;;;;5092761;28;20207;-72
2022/03/23 00:45:32;;;;;;;11.67;4.70;;;5.80;99.90;;;;;;5092387;28;20226;-72
2022/03/23 00:47:59;;;;;;;7.47;4.00;;;5.80;99.90;;;;;;5091834;28;20233;-72
2022/03/23 00:50:26;;;;;;;6.87;3.77;;;5.80;99.90;;;;;;5092297;28;20206;-72
2022/03/23 00:52:53;;;;;;;7.53;3.97;;;5.70;99.90;;;;;;5092620;28;20202;-72
2022/03/23 00:55:20;;;;;;;7.17;3.97;;;5.60;99.90;;;;;;5092482;28;20538;-72
2022/03/23 00:57:48;;;;;;;9.40;4.00;;;5.70;99.90;;;;;;5092254;28;20242;-72
2022/03/23 01:00:17;;;;;;;8.13;4.40;;;5.70;99.90;;;;;;5092404;28;20202;-72
2022/03/23 01:02:46;;;;;;;8.10;4.40;;;5.70;99.90;;;;;;5092292;28;20198;-72
2022/03/23 01:05:13;;;;;;;10.07;4.07;;;5.60;99.90;;;;;;5091998;28;20336;-72
2022/03/23 01:07:41;;;;;;;8.37;4.50;;;5.50;99.90;;;;;;5091960;28;20577;-72
2022/03/23 01:10:11;;;;;;;7.10;4.23;;;5.50;99.90;;;;;;5092584;28;20203;-72
2022/03/23 01:12:38;;;;;;;9.20;4.10;;;5.50;99.90;;;;;;5092755;28;20219;-72
2022/03/23 01:15:08;;;;;;;8.27;4.27;;;5.50;99.90;;;;;;5095292;28;20553;-72
2022/03/23 01:17:34;;;;;;;8.40;4.00;;;5.30;99.90;;;;;;5096056;28;20227;-72
2022/03/23 01:20:03;;;;;;;8.80;4.13;;;5.30;99.90;;;;;;5095950;28;20199;-72
2022/03/23 01:22:29;;;;;;;8.27;3.80;;;5.30;99.90;;;;;;5095547;28;20573;-72
2022/03/23 01:24:56;;;;;;;5.53;3.10;;;5.30;99.90;;;;;;5095613;28;20230;-72
2022/03/23 01:27:23;;;;;;;6.80;3.83;;;5.40;99.90;;;;;;5095491;28;20233;-72
2022/03/23 01:29:50;;;;;;;7.47;3.43;;;5.30;99.90;;;;;;5095905;28;20569;-72
2022/03/23 01:32:18;;;;;;;9.10;3.40;;;5.20;99.90;;;;;;5095479;28;20206;-72
2022/03/23 01:34:45;;;;;;;10.87;4.20;;;5.10;99.90;;;;;;5095857;28;20198;-72
2022/03/23 01:37:12;;;;;;;10.93;3.80;;;5.10;99.90;;;;;;5095651;28;20223;-72
2022/03/23 01:39:40;;;;;;;7.60;3.23;;;5.20;99.90;;;;;;5095860;28;20202;-72
2022/03/23 01:42:07;;;;;;;9.73;4.40;;;5.20;99.90;;;;;;5095424;28;20657;-72
2022/03/23 01:44:34;;;;;;;8.43;4.10;;;5.20;99.90;;;;;;5095260;28;20237;-72
2022/03/23 01:47:04;;;;;;;9.00;4.20;;;5.10;99.90;;;;;;5095144;28;20218;-72
2022/03/23 01:49:32;;;;;;;7.87;3.77;;;5.20;99.90;;;;;;5095170;28;20202;-72
2022/03/23 01:52:00;;;;;;;6.77;3.63;;;5.10;99.90;;;;;;5095244;28;20210;-73
2022/03/23 01:54:27;;;;;;;7.57;3.63;;;5.10;99.90;;;;;;5095464;28;20229;-72
2022/03/23 01:56:55;;;;;;;7.37;3.63;;;5.10;99.90;;;;;;5095406;28;20220;-72
2022/03/23 01:59:22;;;;;;;6.10;3.17;;;5.10;99.90;;;;;;5094938;28;20782;-72
2022/03/23 02:01:50;;;;;;;9.27;4.30;;;5.10;99.90;;;;;;5094054;28;20198;-72
2022/03/23 02:04:17;;;;;;;8.53;3.60;;;5.10;99.90;;;;;;5094320;28;20584;-72
2022/03/23 02:06:48;;;;;;;6.67;3.83;;;5.10;99.90;;;;;;5094139;28;20213;-72
2022/03/23 02:09:15;;;;;;;7.13;3.83;;;5.10;99.90;;;;;;5094630;28;20206;-72
2022/03/23 02:11:42;;;;;;;9.10;4.23;;;5.10;99.90;;;;;;5094785;28;20202;-72
2022/03/23 02:14:09;;;;;;;8.77;3.87;;;5.20;99.90;;;;;;5094150;28;20263;-72
2022/03/23 02:16:40;;;;;;;7.13;3.73;;;5.10;99.90;;;;;;5094755;28;20209;-72
2022/03/23 02:19:07;;;;;;;5.63;3.33;;;4.90;99.90;;;;;;5094643;28;20649;-72
2022/03/23 02:21:35;;;;;;;5.50;3.40;;;4.90;99.90;;;;;;5094227;28;20736;-72
2022/03/23 02:24:04;;;;;;;7.20;4.00;;;5.00;99.90;;;;;;5094550;28;20253;-72
2022/03/23 02:26:31;;;;;;;8.67;4.10;;;4.90;99.90;;;;;;5094972;28;20202;-72
2022/03/23 02:29:00;;;;;;;8.97;4.67;;;4.90;99.90;;;;;;5094925;28;20223;-72
2022/03/23 02:31:27;;;;;;;6.03;3.60;;;4.90;99.90;;;;;;5094179;28;20198;-72
2022/03/23 02:33:54;;;;;;;8.83;4.00;;;4.80;99.90;;;;;;5094583;28;20202;-72
2022/03/23 02:36:21;;;;;;;8.63;4.10;;;4.70;99.90;;;;;;5094462;28;20203;-72
2022/03/23 02:38:48;;;;;;;7.97;4.03;;;4.70;99.90;;;;;;5094521;28;20222;-72
2022/03/23 02:41:16;;;;;;;6.97;3.90;;;4.80;99.90;;;;;;5094484;28;20205;-72
2022/03/23 02:43:43;;;;;;;9.67;3.90;;;4.80;99.90;;;;;;5094489;28;20301;-73
2022/03/23 02:46:13;;;;;;;10.43;4.40;;;4.80;99.90;;;;;;5094154;28;20623;-72
2022/03/23 02:48:40;;;;;;;9.33;4.13;;;4.70;99.90;;;;;;5093524;28;20222;-72
2022/03/23 02:51:07;;;;;;;9.83;4.10;;;4.60;99.90;;;;;;5094284;28;20205;-72
2022/03/23 03:02:11;;;;;;;11.90;4.67;;;4.70;99.90;;;;;;5093580;28;20205;-72
2022/03/23 03:04:38;;;;;;;9.80;4.47;;;4.70;99.90;;;;;;5093651;28;20688;-72
2022/03/23 03:07:05;;;;;;;8.77;4.30;;;4.70;99.90;;;;;;5093953;28;20233;-72
2022/03/23 03:09:32;;;;;;;8.73;4.17;;;4.70;99.90;;;;;;5094158;28;20306;-72
2022/03/23 03:12:01;;;;;;;11.73;4.60;;;4.60;99.90;;;;;;5093620;28;20195;-72
2022/03/23 03:14:29;;;;;;;7.60;4.13;;;4.60;99.90;;;;;;5093162;28;20213;-72
2022/03/23 03:16:56;;;;;;;11.00;5.00;;;4.50;99.90;;;;;;5093207;28;20218;-72
2022/03/23 03:19:23;;;;;;;12.10;4.20;;;4.60;99.90;;;;;;5094106;28;20205;-72
2022/03/23 03:21:49;;;;;;;8.80;4.60;;;4.60;99.90;;;;;;5093564;28;20207;-72
2022/03/23 03:24:16;;;;;;;7.93;4.87;;;4.60;99.90;;;;;;5094044;28;20207;-72
2022/03/23 03:26:44;;;;;;;11.07;5.20;;;4.70;99.90;;;;;;5093924;28;20213;-73
2022/03/23 03:29:12;;;;;;;8.93;4.03;;;4.70;99.90;;;;;;5093670;28;20198;-72
2022/03/23 03:31:39;;;;;;;9.63;4.80;;;4.50;99.90;;;;;;5093089;28;20203;-72
2022/03/23 03:34:06;;;;;;;10.63;4.27;;;4.50;99.90;;;;;;5093452;28;20213;-72
2022/03/23 03:36:33;;;;;;;9.70;4.80;;;4.50;99.90;;;;;;5092595;28;20202;-73
2022/03/23 03:38:59;;;;;;;11.93;4.90;;;4.50;99.90;;;;;;5093060;28;20727;-72
2022/03/23 03:41:27;;;;;;;11.07;5.00;;;4.50;99.90;;;;;;5093021;28;20210;-72
2022/03/23 03:43:54;;;;;;;8.20;4.53;;;4.60;99.90;;;;;;5091396;28;20248;-72
2022/03/23 03:46:22;;;;;;;8.90;4.27;;;4.60;99.90;;;;;;5092982;28;20236;-72
2022/03/23 03:48:49;;;;;;;14.30;4.43;;;4.60;99.90;;;;;;5092464;28;20619;-72
2022/03/23 03:51:16;;;;;;;18.17;5.97;;;4.60;99.90;;;;;;5093003;28;20209;-72
2022/03/23 03:53:43;;;;;;;10.87;5.00;;;4.40;99.90;;;;;;5092878;28;20539;-72
2022/03/23 03:56:10;;;;;;;11.57;4.90;;;4.40;99.90;;;;;;5092772;28;20213;-72
2022/03/23 03:58:38;;;;;;;10.63;4.73;;;4.30;99.90;;;;;;5092663;28;20223;-72
2022/03/23 04:01:05;;;;;;;10.03;4.00;;;4.40;99.90;;;;;;5092987;28;20309;-72
2022/03/23 04:03:34;;;;;;;8.37;4.37;;;4.50;99.90;;;;;;5093022;28;20203;-72
2022/03/23 04:06:01;;;;;;;11.77;5.97;;;4.40;99.90;;;;;;5092267;28;20324;-73
2022/03/23 04:08:27;;;;;;;10.83;4.53;;;4.40;99.90;;;;;;5092875;28;20746;-72
2022/03/23 04:10:54;;;;;;;11.07;5.60;;;4.40;99.90;;;;;;5092702;28;20207;-72
2022/03/23 04:13:21;;;;;;;9.73;5.03;;;4.40;99.90;;;;;;5092124;28;20210;-72
2022/03/23 04:15:48;;;;;;;13.17;4.90;;;4.30;99.90;;;;;;5092139;28;20289;-72
2022/03/23 04:18:15;;;;;;;9.33;4.53;;;4.30;99.90;;;;;;5092870;28;20589;-72
2022/03/23 04:20:43;;;;;;;8.47;4.43;;;4.30;99.90;;;;;;5092916;28;20203;-72
2022/03/23 04:23:10;;;;;;;13.10;5.43;;;4.30;99.90;;;;;;5092669;28;20198;-72
2022/03/23 04:25:36;;;;;;;11.23;5.13;;;4.20;99.90;;;;;;5092738;28;20245;-72
2022/03/23 04:28:03;;;;;;;11.40;5.33;;;4.20;99.90;;;;;;5091562;28;20718;-72
2022/03/23 04:30:32;;;;;;;10.80;5.37;;;4.20;99.90;;;;;;5072582;28;20207;-72
2022/03/23 04:33:00;;;;;;;11.57;5.03;;;4.10;99.90;;;;;;5072142;28;20213;-72
2022/03/23 04:35:27;;;;;;;10.20;4.80;;;4.10;99.90;;;;;;5072627;28;20213;-72
2022/03/23 04:37:56;;;;;;;9.73;4.80;;;4.10;99.90;;;;;;5071558;28;20255;-72
2022/03/23 04:40:23;;;;;;;8.70;4.83;;;4.20;99.90;;;;;;5071911;28;20207;-72
2022/03/23 04:42:50;;;;;;;10.70;4.90;;;4.20;99.90;;;;;;5081848;28;20201;-72
2022/03/23 04:45:18;;;;;;;9.37;4.80;;;4.30;99.90;;;;;;5092035;28;20689;-72
2022/03/23 04:47:45;;;;;;;13.93;5.07;;;4.20;99.90;;;;;;5095413;28;20218;-72
2022/03/23 04:50:13;;;;;;;9.60;5.10;;;4.10;99.90;;;;;;5096672;28;20206;-72
2022/03/23 04:52:41;;;;;;;11.53;5.47;;;4.10;99.90;;;;;;5096570;28;20202;-72
2022/03/23 04:55:11;;;;;;;11.40;4.93;;;4.00;99.90;;;;;;5097046;28;20248;-72
2022/03/23 04:57:37;;;;;;;12.47;6.40;;;4.00;99.90;;;;;;5096248;28;20252;-72
2022/03/23 05:00:08;;;;;;;9.43;5.10;;;4.10;99.90;;;;;;5095693;28;20198;-72
2022/03/23 05:02:35;;;;;;;9.73;5.20;;;4.20;99.90;;;;;;5096286;28;20203;-72
2022/03/23 05:05:03;;;;;;;13.00;5.77;;;4.30;99.90;;;;;;5096947;28;20253;-72
2022/03/23 05:07:30;;;;;;;10.40;5.27;;;4.20;99.90;;;;;;5095858;28;20219;-72
2022/03/23 05:09:56;;;;;;;12.10;5.10;;;4.10;99.90;;;;;;5096450;28;20238;-72
2022/03/23 05:12:24;;;;;;;11.30;5.23;;;4.10;99.90;;;;;;5095350;28;20199;-72
2022/03/23 05:14:51;;;;;;;16.40;6.07;;;4.10;99.90;;;;;;5095427;28;20771;-72
2022/03/23 05:17:18;;;;;;;10.20;4.63;;;4.20;99.90;;;;;;5096108;28;20313;-72
2022/03/23 05:19:45;;;;;;;11.13;6.07;;;4.10;99.90;;;;;;5096358;28;20202;-72
2022/03/23 05:22:12;;;;;;;13.00;5.53;;;4.00;99.90;;;;;;5096312;28;20641;-72
2022/03/23 05:24:39;;;;;;;10.07;5.47;;;4.00;99.90;;;;;;5095968;28;20293;-72
2022/03/23 05:27:06;;;;;;;11.07;5.40;;;4.00;99.90;;;;;;5095884;28;20226;-72
2022/03/23 05:29:35;;;;;;;10.40;5.20;;;4.00;99.90;;;;;;5096276;28;20203;-72
2022/03/23 05:32:01;;;;;;;11.93;5.63;;;4.10;99.90;;;;;;5095966;28;20198;-72
2022/03/23 05:34:28;;;;;;;11.70;5.50;;;4.10;99.90;;;;;;5096007;28;20203;-72
2022/03/23 05:36:55;;;;;;;13.17;5.43;;;4.20;99.90;;;;;;5095382;28;20653;-72
2022/03/23 05:39:22;;;;;;;10.93;5.33;;;4.00;99.90;;;;;;5095653;28;20207;-72
2022/03/23 05:41:48;;;;;;;9.80;5.30;;;4.00;99.90;;;;;;5079073;28;20199;-72
2022/03/23 05:44:15;;;;;;;14.23;5.17;;;4.00;99.90;;;;;;5075564;28;20210;-72
2022/03/23 05:46:43;;;;;;;12.23;5.77;;;4.00;99.90;;;;;;5075533;28;20322;-72
2022/03/23 05:49:10;;;;;;;12.63;5.43;;;4.00;99.90;;;;;;5075599;28;20223;-72
2022/03/23 05:51:37;;;;;;;10.83;5.43;;;3.90;99.90;;;;;;5086862;28;20203;-72
2022/03/23 05:54:04;;;;;;;12.70;5.90;;;4.00;99.90;;;;;;5095321;28;20206;-72
2022/03/23 05:56:30;;;;;;;10.20;5.43;;;4.10;99.90;;;;;;5094488;28;20202;-72
2022/03/23 05:58:57;;;;;;;11.63;5.60;;;4.10;99.90;;;;;;5094283;28;20232;-72
2022/03/23 06:01:24;;;;;;;12.73;5.93;;;4.10;99.90;;;;;;5095307;28;20209;-72
2022/03/23 06:03:52;;;;;;;10.27;4.93;;;4.30;99.90;;;;;;5094650;28;20557;-72
2022/03/23 06:06:19;;;;;;;11.43;5.63;;;4.40;99.90;;;;;;5086605;28;20230;-72
2022/03/23 06:08:46;;;;;;;14.10;5.80;;;4.40;99.90;;;;;;5079929;28;20577;-72
2022/03/23 06:11:13;;;;;;;11.33;5.50;;;4.40;99.90;;;;;;5094456;28;20202;-72
2022/03/23 06:13:40;;;;;;;15.60;6.07;;;4.50;99.90;;;;;;5094245;28;20211;-72
2022/03/23 06:16:08;;;;;;;13.40;6.10;;;4.70;99.90;;;;;;5091691;28;20198;-72
2022/03/23 06:18:35;;;;;;;14.23;6.27;;;4.70;99.90;;;;;;5091079;28;20311;-72
2022/03/23 06:21:03;;;;;;;12.53;5.43;;;5.10;99.90;;;;;;5094731;28;20209;-73
2022/03/23 06:23:30;;;;;;;11.03;4.97;;;5.40;99.90;;;;;;5094616;28;20203;-72
2022/03/23 06:25:57;;;;;;;14.47;5.63;;;5.80;99.90;;;;;;5095007;28;20772;-72
2022/03/23 06:28:24;;;;;;;11.13;5.07;;;6.30;99.90;;;;;;5094596;28;20225;-72
2022/03/23 06:30:51;;;;;;;19.27;7.40;;;6.70;99.90;;;;;;5094698;28;20660;-72
2022/03/23 06:33:19;;;;;;;14.87;6.43;;;7.20;99.90;;;;;;5094474;28;20199;-72
2022/03/23 06:35:46;;;;;;;9.33;4.77;;;7.90;99.90;;;;;;5094598;28;20207;-72
2022/03/23 06:38:14;;;;;;;13.47;6.23;;;8.20;99.90;;;;;;5094852;28;20230;-72
2022/03/23 06:40:41;;;;;;;12.70;5.80;;;8.80;99.90;;;;;;5094743;28;20209;-71
2022/03/23 06:43:09;;;;;;;13.73;6.27;;;9.00;99.90;;;;;;5093378;28;20199;-71
2022/03/23 06:45:36;;;;;;;17.87;6.70;;;9.40;99.90;;;;;;5078165;28;20316;-72
2022/03/23 06:48:04;;;;;;;22.83;8.27;;;9.90;99.90;;;;;;5073757;28;20590;-72
2022/03/23 06:50:31;;;;;;;26.00;10.00;;;10.40;99.90;;;;;;5083421;28;20210;-71
2022/03/23 06:52:57;;;;;;;20.33;8.50;;;10.70;99.90;;;;;;5091802;28;20323;-72
2022/03/23 06:55:26;;;;;;;18.97;8.83;;;11.00;99.90;;;;;;5091578;28;20194;-72
2022/03/23 06:57:53;;;;;;;18.73;7.77;;;11.30;99.90;;;;;;5090542;28;20225;-72
2022/03/23 07:00:20;;;;;;;23.10;8.33;;;11.90;99.50;;;;;;5087972;28;20201;-72
2022/03/23 07:02:49;;;;;;;19.23;7.67;;;12.20;99.10;;;;;;5086156;28;20209;-72
2022/03/23 07:05:17;;;;;;;23.03;9.17;;;12.60;98.90;;;;;;5096750;28;20198;-72
2022/03/23 07:09:31;;;;;;;16.30;7.63;;;12.60;98.40;;;;;;5093676;28;20225;-72
2022/03/23 07:10:36;;;;;;;13.80;7.10;;;12.90;98.50;;;;;;5089920;28;20195;-72
2022/03/23 07:13:03;;;;;;;15.33;7.40;;;13.40;98.20;;;;;;5093285;28;20216;-72
2022/03/23 07:15:30;;;;;;;20.87;8.37;;;13.80;97.70;;;;;;5093983;28;20199;-72
2022/03/23 07:17:57;;;;;;;18.40;8.17;;;14.20;97.10;;;;;;5093582;28;20214;-72
2022/03/23 07:20:24;;;;;;;14.97;7.63;;;14.60;97.10;;;;;;5094062;28;20195;-72
2022/03/23 07:22:51;;;;;;;15.07;7.43;;;14.70;96.30;;;;;;5093429;28;20206;-72
2022/03/23 07:25:18;;;;;;;12.87;7.00;;;14.90;96.00;;;;;;5093105;28;20202;-72
2022/03/23 07:27:46;;;;;;;12.63;7.00;;;14.90;95.90;;;;;;5091858;28;20219;-71
2022/03/23 07:30:13;;;;;;;15.67;7.87;;;15.10;96.00;;;;;;5092327;28;20205;-72
2022/03/23 07:32:40;;;;;;;19.43;7.63;;;15.50;96.00;;;;;;5093254;28;20206;-72
2022/03/23 07:35:08;;;;;;;13.10;7.27;;;16.00;96.00;;;;;;5092976;28;20669;-72
2022/03/23 07:37:35;;;;;;;14.73;6.73;;;16.30;95.30;;;;;;5093586;28;20244;-72
2022/03/23 07:40:02;;;;;;;13.43;6.63;;;16.80;94.90;;;;;;5093605;28;20206;-73
2022/03/23 07:42:29;;;;;;;18.42;7.50;;;17.20;94.40;;;;;;5093264;28;20677;-72
2022/03/23 07:44:57;;;;;;;17.13;6.75;;;17.80;94.50;;;;;;5092656;28;20309;-73
2022/03/23 07:47:24;;;;;;;17.17;7.50;;;17.90;93.80;;;;;;5092845;28;20245;-72
2022/03/23 07:49:51;;;;;;;15.20;6.93;;;18.10;93.00;;;;;;5093363;28;20209;-72
2022/03/23 07:52:18;;;;;;;14.85;7.43;;;18.50;92.40;;;;;;5089559;28;20209;-73
2022/03/23 07:54:45;;;;;;;12.68;6.60;;;18.90;91.90;;;;;;5092805;28;20653;-73
2022/03/23 07:57:12;;;;;;;13.65;7.15;;;18.90;92.00;;;;;;5092728;28;20229;-73
2022/03/23 07:59:40;;;;;;;11.35;6.60;;;19.30;91.10;;;;;;5092716;28;20256;-72
2022/03/23 08:02:08;;;;;;;16.85;7.10;;;19.40;90.50;;;;;;5092703;28;20229;-72
2022/03/23 08:04:36;;;;;;;15.18;7.93;;;19.70;89.70;;;;;;5092842;28;20661;-73
2022/03/23 08:07:03;;;;;;;13.88;7.25;;;19.90;90.50;;;;;;5092963;28;20238;-73
2022/03/23 08:09:31;;;;;;;15.93;7.95;;;20.40;88.20;;;;;;5092827;28;20210;-72
2022/03/23 08:11:58;;;;;;;14.93;8.15;;;20.70;89.20;;;;;;5093024;28;20297;-73
2022/03/23 08:14:25;;;;;;;12.55;7.03;;;21.20;86.20;;;;;;5092586;28;20207;-72
2022/03/23 08:16:52;;;;;;;17.15;7.80;;;21.20;87.90;;;;;;5092889;28;20328;-72
2022/03/23 08:19:22;;;;;;;19.15;8.95;;;21.20;85.30;;;;;;5092788;28;20679;-73
2022/03/23 08:21:49;;;;;;;18.38;7.53;;;21.30;85.70;;;;;;5091717;28;20205;-72
2022/03/23 08:24:16;;;;;;;15.55;7.43;;;21.40;86.50;;;;;;5092879;28;20573;-72
2022/03/23 08:26:43;;;;;;;17.15;8.27;;;21.70;85.70;;;;;;5091894;28;20237;-72
2022/03/23 08:29:10;;;;;;;20.30;8.35;;;21.80;82.50;;;;;;5091899;28;20549;-73
2022/03/23 08:31:36;;;;;;;17.90;8.20;;;21.80;80.30;;;;;;5092606;28;20202;-73
2022/03/23 08:34:03;;;;;;;20.85;8.93;;;21.60;78.90;;;;;;5088479;28;20206;-75
2022/03/23 08:36:32;;;;;;;17.73;8.07;;;21.70;78.80;;;;;;5091690;28;20218;-81
2022/03/23 08:39:00;;;;;;;20.27;9.00;;;21.50;77.30;;;;;;5091298;28;20230;-78
2022/03/23 08:41:27;;;;;;;19.90;9.10;;;21.50;76.50;;;;;;5090401;28;20585;-79
2022/03/23 08:43:54;;;;;;;18.52;9.73;;;21.80;76.40;;;;;;5085457;28;20629;-79
2022/03/23 08:46:21;;;;;;;17.27;8.63;;;22.10;74.00;;;;;;5090246;28;20222;-75
2022/03/23 08:48:49;;;;;;;17.30;8.57;;;22.20;73.10;;;;;;5090514;28;20226;-75
2022/03/23 08:51:16;;;;;;;18.33;8.55;;;22.20;71.80;;;;;;5091074;28;20206;-75
2022/03/23 08:53:44;;;;;;;20.63;8.77;;;21.80;72.00;;;;;;5091646;28;20203;-80
2022/03/23 08:56:11;;;;;;;16.17;8.43;;;21.80;72.20;;;;;;5091224;28;20206;-76
2022/03/23 08:58:38;;;;;;;17.80;7.75;;;21.80;71.40;;;;;;5091728;28;20801;-76
2022/03/23 09:01:05;;;;;;;16.00;8.52;;;21.70;70.70;;;;;;5091776;28;20194;-75
2022/03/23 09:03:32;;;;;;;17.52;8.30;;;21.30;69.90;;;;;;5091994;28;20301;-76
2022/03/23 09:05:59;;;;;;;18.67;8.52;;;21.30;71.70;;;;;;5088560;28;20199;-76
2022/03/23 09:08:26;;;;;;;14.65;7.43;;;21.00;71.60;;;;;;5091867;28;20218;-76
2022/03/23 09:10:54;;;;;;;18.77;8.57;;;21.20;71.40;;;;;;5078249;28;20203;-76
2022/03/23 09:13:22;;;;;;;18.30;7.85;;;21.40;71.30;;;;;;5071985;28;20215;-76
2022/03/23 09:15:48;;;;;;;21.67;9.15;;;21.20;71.30;;;;;;5072087;28;20203;-76
2022/03/23 09:18:15;;;;;;;17.90;9.18;;;21.10;71.00;;;;;;5084090;28;20249;-76
2022/03/23 09:20:42;;;;;;;24.25;9.32;;;21.00;72.10;;;;;;5082573;28;20205;-76
2022/03/23 09:23:09;;;;;;;24.20;9.07;;;21.10;72.40;;;;;;5072163;28;20203;-76
2022/03/23 09:25:36;;;;;;;22.80;8.85;;;21.00;73.10;;;;;;5072158;28;20214;-76
2022/03/23 09:28:05;;;;;;;18.50;9.10;;;21.10;71.90;;;;;;5071651;28;20239;-76
2022/03/23 09:30:32;;;;;;;19.83;9.10;;;21.00;70.60;;;;;;5072168;28;20207;-76
2022/03/23 09:33:00;;;;;;;20.45;9.02;;;20.30;72.20;;;;;;5086967;28;20206;-75
2022/03/23 09:35:28;;;;;;;20.35;9.00;;;20.10;73.90;;;;;;5083430;28;20237;-76
2022/03/23 09:37:56;;;;;;;22.05;9.13;;;20.00;75.00;;;;;;5081222;28;20221;-77
2022/03/23 09:40:24;;;;;;;22.20;8.90;;;19.90;74.00;;;;;;5078137;28;20203;-77
2022/03/23 09:42:52;;;;;;;21.05;8.68;;;19.90;74.30;;;;;;5075451;28;20207;-77
2022/03/23 09:45:38;;;;;;;22.45;8.10;;;19.70;69.90;;;;;;5075309;28;20713;-77
2022/03/23 09:48:09;;;;;;;16.63;8.07;;;19.50;70.20;;;;;;5080869;28;20226;-77
2022/03/23 09:50:37;;;;;;;18.67;8.00;;;19.40;70.80;;;;;;5075068;28;20671;-76
2022/03/23 09:53:05;;;;;;;22.92;8.68;;;18.90;70.20;;;;;;5075093;28;20203;-76
2022/03/23 09:55:32;;;;;;;22.10;8.52;;;18.70;72.80;;;;;;5091481;28;20202;-76
2022/03/23 09:58:01;;;;;;;20.08;8.60;;;18.80;73.70;;;;;;5082791;28;20215;-77
2022/03/23 10:00:35;;;;;;;17.20;8.10;;;18.70;72.90;;;;;;5075481;28;20206;-77
2022/03/23 10:03:55;;;;;;;20.38;9.10;;;18.70;73.20;;;;;;5089227;28;20194;-76
2022/03/23 10:06:59;;;;;;;17.90;7.70;;;18.60;69.60;;;;;;5083483;28;20199;-77
2022/03/23 10:10:12;;;;;;;17.25;7.57;;;18.60;69.90;;;;;;5090132;28;20667;-77
2022/03/23 10:13:31;;;;;;;18.65;7.93;;;18.70;71.80;;;;;;5095218;28;20566;-77
2022/03/23 10:16:55;;;;;;;15.05;7.47;;;18.80;68.70;;;;;;5031719;28;20208;-76
2022/03/23 10:19:21;;;;;;;12.07;6.38;;;18.80;70.40;;;;;;5014626;28;20209;-76
2022/03/23 10:21:49;;;;;;;15.95;7.47;;;18.70;68.60;;;;;;5082650;28;20199;-77
2022/03/23 10:24:33;;;;;;;17.00;7.85;;;18.70;68.10;;;;;;5094861;28;20210;-77
2022/03/23 10:27:04;;;;;;;17.43;7.40;;;18.90;68.40;;;;;;5094376;28;20390;-77
2022/03/23 10:29:32;;;;;;;14.40;6.90;;;18.80;67.90;;;;;;5095074;28;20206;-77
2022/03/23 10:32:09;;;;;;;18.00;8.18;;;18.80;66.30;;;;;;5093398;28;20636;-76
2022/03/23 10:34:45;;;;;;;13.60;7.47;;;18.80;65.00;;;;;;5093564;28;20236;-76
2022/03/23 10:37:13;;;;;;;30.38;8.30;;;18.70;66.80;;;;;;5091295;28;20692;-77
2022/03/23 10:39:40;;;;;;;21.63;8.50;;;18.90;66.10;;;;;;5076141;28;20199;-77
2022/03/23 10:42:10;;;;;;;15.70;7.60;;;18.90;65.70;;;;;;5073890;28;20203;-76
2022/03/23 10:44:37;;;;;;;26.83;8.63;;;18.80;65.80;;;;;;5086552;28;20218;-77
2022/03/23 10:47:06;;;;;;;20.55;8.32;;;18.80;69.30;;;;;;5080233;28;20326;-77
2022/03/23 10:49:37;;;;;;;18.70;8.02;;;18.80;67.70;;;;;;5084683;28;20198;-76
2022/03/23 10:52:11;;;;;;;18.67;7.35;;;18.90;67.00;;;;;;5086978;28;20200;-77
2022/03/23 10:54:38;;;;;;;15.55;7.55;;;19.10;70.40;;;;;;5083578;28;20199;-75
2022/03/23 10:57:05;;;;;;;14.15;7.65;;;19.00;68.20;;;;;;5083056;28;20223;-75
2022/03/23 10:59:33;;;;;;;14.77;7.53;;;19.10;66.30;;;;;;5082028;28;20210;-76
2022/03/23 11:02:02;;;;;;;15.05;7.05;;;18.90;65.90;;;;;;5081937;28;20678;-75
2022/03/23 11:04:31;;;;;;;13.18;6.95;;;18.90;65.80;;;;;;5094183;28;20202;-76
2022/03/23 11:06:59;;;;;;;14.60;7.30;;;19.00;65.70;;;;;;5093858;28;20325;-75
2022/03/23 11:18:07;;;;;;;13.95;6.60;;;19.00;66.50;;;;;;5076445;28;20230;-76
2022/03/23 11:20:47;;;;;;;19.17;8.35;;;18.90;67.50;;;;;;5075391;28;20268;-75
2022/03/23 11:23:23;;;;;;;14.68;7.35;;;19.00;67.90;;;;;;5093346;28;20256;-76
2022/03/23 11:25:50;;;;;;;16.85;7.88;;;19.00;69.30;;;;;;5093607;28;20252;-76
2022/03/23 11:28:18;;;;;;;17.23;8.55;;;19.00;67.70;;;;;;5092676;28;20234;-76
2022/03/23 11:30:47;;;;;;;17.98;7.75;;;18.90;70.30;;;;;;5092551;28;20535;-76
2022/03/23 11:33:16;;;;;;;17.67;7.90;;;18.90;67.90;;;;;;5093293;28;20661;-76
2022/03/23 11:35:49;;;;;;;16.27;7.65;;;18.90;69.30;;;;;;5093548;28;20665;-76
2022/03/23 11:38:18;;;;;;;18.60;8.70;;;19.00;70.50;;;;;;5088525;28;20250;-77
2022/03/23 11:40:45;;;;;;;20.25;7.75;;;19.10;69.80;;;;;;5089030;28;20228;-75
2022/03/23 11:43:13;;;;;;;15.75;7.50;;;19.20;70.40;;;;;;5080984;28;20198;-75
2022/03/23 11:45:43;;;;;;;18.05;7.18;;;19.20;67.50;;;;;;5093338;28;20649;-76
2022/03/23 11:48:15;;;;;;;18.95;7.13;;;19.20;67.30;;;;;;5076916;28;20235;-75
2022/03/23 11:50:58;;;;;;;18.10;6.95;;;19.40;65.80;;;;;;5073038;28;20227;-76
2022/03/23 11:53:35;;;;;;;17.75;7.65;;;19.40;68.30;;;;;;5071861;28;20199;-75
2022/03/23 11:56:03;;;;;;;14.38;6.30;;;19.30;67.20;;;;;;5071810;28;20257;-75
2022/03/23 11:58:38;;;;;;;11.23;5.10;;;19.40;68.60;;;;;;5073201;28;20701;-76
2022/03/23 12:01:09;;;;;;;11.73;5.20;;;19.10;65.60;;;;;;5093164;28;20204;-76
2022/03/23 12:03:53;;;;;;;11.02;5.28;;;19.00;67.00;;;;;;5090462;28;20282;-77
2022/03/23 12:06:23;;;;;;;14.93;5.78;;;19.10;64.20;;;;;;5072821;28;20238;-76
2022/03/23 12:08:53;;;;;;;12.00;5.65;;;19.20;66.30;;;;;;5075393;28;20235;-76
2022/03/23 12:11:51;;;;;;;8.70;4.60;;;19.20;69.40;;;;;;5089131;28;20226;-76
2022/03/23 12:14:36;;;;;;;12.07;5.40;;;19.00;65.10;;;;;;5092510;28;20225;-74
2022/03/23 12:17:19;;;;;;;15.30;4.88;;;19.00;65.00;;;;;;5091941;28;20242;-76
2022/03/23 12:20:10;;;;;;;11.15;5.00;;;19.10;65.40;;;;;;5092529;28;20211;-76
2022/03/23 12:23:13;;;;;;;14.60;5.68;;;19.30;64.90;;;;;;5092458;28;20209;-76
2022/03/23 12:26:08;;;;;;;10.18;4.05;;;19.40;66.50;;;;;;5092701;28;20205;-75
2022/03/23 12:28:40;;;;;;;8.68;3.80;;;19.50;62.80;;;;;;5088295;28;20240;-76
2022/03/23 12:31:10;;;;;;;9.30;4.35;;;19.60;63.70;;;;;;5092105;28;20218;-75
2022/03/23 12:33:58;;;;;;;8.60;4.28;;;19.60;64.90;;;;;;5092016;28;20768;-75
2022/03/23 12:36:56;;;;;;;9.52;4.10;;;19.50;61.90;;;;;;5091690;28;20745;-76
2022/03/23 12:39:34;;;;;;;11.50;3.95;;;19.50;64.00;;;;;;5084962;28;20625;-75
2022/03/23 12:42:23;;;;;;;10.70;4.57;;;19.40;62.60;;;;;;5095223;28;20573;-75
2022/03/23 12:45:01;;;;;;;12.18;4.57;;;19.50;62.40;;;;;;5096046;28;20213;-75
2022/03/23 12:47:29;;;;;;;9.30;4.33;;;19.50;62.30;;;;;;5079038;28;20231;-75
2022/03/23 12:58:25;;;;;;;6.53;3.40;;;19.50;65.40;;;;;;5071924;28;20274;-75
2022/03/23 13:00:55;;;;;;;9.52;3.92;;;19.30;64.90;;;;;;5071907;28;20203;-76
2022/03/23 13:03:55;;;;;;;8.75;3.53;;;19.20;63.00;;;;;;5071631;28;20203;-76
2022/03/23 13:06:33;;;;;;;8.65;4.13;;;19.30;62.60;;;;;;5071715;28;20211;-75
2022/03/23 13:09:00;;;;;;;11.48;4.10;;;19.50;63.70;;;;;;5077621;28;20249;-77
2022/03/23 13:11:28;;;;;;;9.80;4.30;;;19.70;64.60;;;;;;5075357;28;20207;-77
2022/03/23 13:13:58;;;;;;;8.73;4.53;;;19.70;64.50;;;;;;5075646;28;20268;-74
2022/03/23 13:16:27;;;;;;;11.32;4.00;;;19.70;62.90;;;;;;5081158;28;20211;-75
2022/03/23 13:18:56;;;;;;;9.55;4.00;;;19.80;64.60;;;;;;5081731;28;20211;-75
2022/03/23 13:21:25;;;;;;;7.85;3.70;;;19.70;64.30;;;;;;5075362;28;20195;-75
2022/03/23 13:23:53;;;;;;;12.02;4.07;;;19.60;63.40;;;;;;5075514;28;20291;-75